MDT,Max TemperatureF,Mean TemperatureF,Min TemperatureF,Max Dew PointF,MeanDew PointF,Min DewpointF,Max Humidity, Mean Humidity, Min Humidity, Max Sea Level PressureIn, Mean Sea Level PressureIn, Min Sea Level PressureIn, Max VisibilityMiles, Mean VisibilityMiles, Min VisibilityMiles, Max Wind SpeedMPH, Mean Wind SpeedMPH, Max Gust SpeedMPH,PrecipitationIn, CloudCover, Events, WindDirDegrees
2012-10-1,68,55,41,44,34,25,100,60,19,30.27,30.10,29.84,,,,17,10,22,0.00,,,255
2012-10-2,79,62,44,37,32,28,53,35,17,29.81,29.71,29.67,,,,23,11,29,0.00,,,3
2012-10-3,59,46,33,42,37,33,100,74,47,30.32,29.99,29.66,,,,28,20,35,0.05,,,356
2012-10-4,45,34,23,34,27,22,100,75,49,30.39,30.37,30.33,,,,23,12,28,0.01,,,332
2012-10-5,44,32,20,25,22,19,88,67,45,30.42,30.39,30.35,,,,21,9,25,0.00,,,322
2012-10-6,46,32,17,22,16,12,92,60,27,30.45,30.34,30.16,,,,16,9,20,0.00,,,284
2012-10-7,59,42,25,34,27,17,85,61,36,30.13,29.94,29.71,,,,31,16,41,0.00,,,269
2012-10-8,55,46,37,44,34,22,86,61,35,29.90,29.76,29.67,,,,32,21,39,0.01,,,294
2012-10-9,47,39,31,30,25,18,82,59,36,30.11,30.03,29.92,,,,36,17,43,0.00,,,299
2012-10-10,69,50,31,34,30,27,85,54,22,30.06,29.91,29.77,,,,29,15,36,0.00,,,265
2012-10-11,40,36,31,34,31,29,96,86,75,30.32,30.22,30.01,,,,26,10,33,0.01,,,77
2012-10-12,69,49,28,33,31,26,100,64,27,30.17,29.85,29.63,,,,23,11,29,0.00,,,171
2012-10-13,71,56,41,36,33,32,70,48,25,29.92,29.75,29.60,,,,28,15,32,0.00,,,313
2012-10-14,68,54,40,39,35,32,79,53,26,30.00,29.94,29.86,,,,33,15,41,0.00,,,279
2012-10-15,75,61,46,47,36,29,83,52,20,29.82,29.71,29.62,,,,28,16,33,0.00,,,279
2012-10-16,66,55,44,47,42,27,93,66,39,29.67,29.44,29.27,,,,39,15,49,0.00,,,258
2012-10-17,54,46,37,35,22,16,92,58,24,29.73,29.59,29.42,,,,60,45,71,0.00,,,298
2012-10-18,50,39,28,29,26,20,78,60,41,30.06,29.92,29.74,,,,53,33,63,0.00,,,310
2012-10-19,68,46,24,26,21,17,75,48,20,30.01,29.80,29.59,,,,16,6,18,0.00,,,224
2012-10-20,74,55,36,46,32,22,86,52,17,29.60,29.52,29.43,,,,24,10,29,0.03,,,330
2012-10-21,51,45,38,42,33,28,89,65,41,29.97,29.86,29.63,,,,24,13,29,0.08,,,27
2012-10-22,42,40,37,39,37,33,100,90,79,29.97,29.85,29.63,,,,22,13,26,0.12,,,104
2012-10-23,46,40,34,43,38,31,100,91,82,29.90,29.72,29.57,,,,25,12,30,0.21,,,297
2012-10-24,36,29,22,31,26,22,92,78,64,30.14,30.03,29.89,,,,21,13,24,0.01,,,319
2012-10-25,28,26,23,22,20,17,92,78,63,30.40,30.27,30.12,,,,36,23,40,0.00,,,308
2012-10-26,36,31,25,21,18,15,75,61,47,30.44,30.35,30.19,,,,25,11,30,0.00,,,290
2012-10-27,43,33,23,25,23,20,92,69,45,30.18,30.13,30.09,,,,15,6,18,0.02,,,87
2012-10-28,43,32,20,32,28,20,100,81,62,30.12,30.02,29.95,,,,18,10,22,0.00,,,122
2012-10-29,65,50,34,45,37,31,92,63,34,29.98,29.93,29.87,,,,16,4,20,0.00,,,164
2012-10-30,63,52,40,47,40,35,96,68,39,29.99,29.96,29.90,,,,35,7,40,0.03,,,276
2012-10-31,62,49,35,40,37,34,100,71,42,30.07,29.97,29.91,,,,24,10,29,0.00,,,348